Time;durP1;ratioP1;P1;durP2;ratioP2;P2;SDS_P1;SDS_P2;PMS_P1;PMS_P2;Temp;Humidity;BMP_temperature;BMP_pressure;BME280_temperature;BME280_humidity;BME280_pressure;Samples;Min_cycle;Max_cycle;Signal;HPM_P1;HPM_P2
2022/04/02 00:00:45;;;;;;;8.55;2.55;;;-0.10;99.90;;;;;;5095369;28;20054;-73
2022/04/02 00:03:11;;;;;;;3.42;2.03;;;0.00;99.90;;;;;;5114136;28;20047;-73
2022/04/02 00:05:37;;;;;;;4.40;3.20;;;0.00;99.90;;;;;;5094628;28;20047;-73
2022/04/02 00:08:03;;;;;;;4.07;2.30;;;0.00;99.90;;;;;;5095707;28;20050;-73
2022/04/02 00:10:29;;;;;;;3.40;2.25;;;-0.10;99.90;;;;;;5095429;28;20039;-73
2022/04/02 00:12:56;;;;;;;6.43;2.42;;;-0.10;99.90;;;;;;5113292;28;20043;-73
2022/04/02 00:15:22;;;;;;;4.35;2.10;;;-0.10;99.90;;;;;;5095291;28;20039;-73
2022/04/02 00:17:49;;;;;;;3.25;2.53;;;0.00;99.90;;;;;;5113936;28;20051;-73
2022/04/02 00:20:16;;;;;;;11.10;3.47;;;0.00;99.90;;;;;;5112921;28;20078;-73
2022/04/02 00:23:35;;;;;;;3.25;2.50;;;0.00;99.90;;;;;;5113929;28;20047;-73
2022/04/02 00:25:28;;;;;;;3.15;2.08;;;0.10;99.90;;;;;;5112570;28;20120;-73
2022/04/02 00:27:54;;;;;;;6.85;2.50;;;0.10;99.90;;;;;;5113868;28;20425;-73
2022/04/02 00:30:20;;;;;;;7.93;2.97;;;0.00;99.90;;;;;;5095401;28;20051;-73
2022/04/02 00:32:45;;;;;;;5.00;2.47;;;0.00;99.90;;;;;;5113044;28;20518;-73
2022/04/02 00:35:11;;;;;;;7.53;2.75;;;0.00;99.90;;;;;;5095404;28;20398;-73
2022/04/02 00:37:37;;;;;;;4.05;1.88;;;-0.10;99.90;;;;;;5095674;28;20045;-73
2022/04/02 00:40:03;;;;;;;5.82;2.42;;;-0.10;99.90;;;;;;5094594;28;20073;-73
2022/04/02 00:42:29;;;;;;;3.17;2.30;;;-0.20;99.90;;;;;;5113571;28;20039;-73
2022/04/02 00:44:54;;;;;;;3.03;2.55;;;-0.20;99.90;;;;;;5095696;28;20391;-73
2022/04/02 00:47:23;;;;;;;5.57;2.63;;;-0.30;99.90;;;;;;5093933;28;20131;-73
2022/04/02 00:49:51;;;;;;;3.97;1.90;;;-0.30;99.90;;;;;;5113674;28;20107;-73
2022/04/02 00:52:18;;;;;;;3.45;2.00;;;-0.40;99.90;;;;;;5095153;28;20384;-73
2022/04/02 00:54:45;;;;;;;5.65;2.58;;;-0.40;99.90;;;;;;5098523;28;20048;-73
2022/04/02 00:57:11;;;;;;;2.63;2.30;;;-0.40;99.90;;;;;;5081090;28;20093;-73
2022/04/02 00:59:37;;;;;;;3.13;2.25;;;-0.50;99.90;;;;;;5076636;28;20194;-73
2022/04/02 01:02:03;;;;;;;4.05;2.40;;;-0.50;99.90;;;;;;5096930;28;20472;-73
2022/04/02 01:04:29;;;;;;;6.45;3.03;;;-0.50;99.90;;;;;;5079040;28;20046;-73
2022/04/02 01:06:55;;;;;;;6.35;2.75;;;-0.60;99.90;;;;;;5089300;28;20048;-73
2022/04/02 01:09:21;;;;;;;4.28;2.25;;;-0.60;99.90;;;;;;5098583;28;20075;-73
2022/04/02 01:11:48;;;;;;;4.25;2.58;;;-0.60;99.90;;;;;;5097144;28;20572;-73
2022/04/02 01:14:14;;;;;;;6.57;2.47;;;-0.50;99.90;;;;;;5099025;28;20054;-73
2022/04/02 01:16:40;;;;;;;6.93;2.80;;;-0.60;99.90;;;;;;5108112;28;20044;-73
2022/04/02 01:19:06;;;;;;;6.10;2.67;;;-0.60;99.90;;;;;;5087602;28;20122;-73
2022/04/02 01:21:33;;;;;;;7.22;2.67;;;-0.60;99.90;;;;;;5096446;28;20044;-73
2022/04/02 01:24:00;;;;;;;5.00;2.25;;;-0.60;99.90;;;;;;5078423;28;20051;-73
2022/04/02 01:26:27;;;;;;;3.10;2.17;;;-0.60;99.90;;;;;;5076217;28;20044;-73
2022/04/02 01:29:00;;;;;;;4.53;2.45;;;-0.60;99.90;;;;;;5057652;28;20040;-73
2022/04/02 01:31:27;;;;;;;4.70;2.47;;;-0.60;99.90;;;;;;5116276;28;20051;-73
2022/04/02 01:33:53;;;;;;;3.75;2.80;;;-0.70;99.90;;;;;;5098586;28;20082;-74
2022/04/02 01:36:20;;;;;;;5.82;2.60;;;-0.70;99.90;;;;;;5097147;28;20040;-73
2022/04/02 01:38:46;;;;;;;3.35;2.33;;;-0.80;99.90;;;;;;5096496;28;20040;-73
2022/04/02 01:41:13;;;;;;;7.43;2.85;;;-0.80;99.90;;;;;;5112909;28;20036;-73
2022/04/02 01:43:39;;;;;;;4.72;2.38;;;-0.80;99.90;;;;;;5097751;28;20039;-74
2022/04/02 01:46:05;;;;;;;4.53;2.38;;;-0.70;99.90;;;;;;5096425;28;20376;-73
2022/04/02 01:48:32;;;;;;;6.28;2.40;;;-0.70;99.90;;;;;;5101248;28;20040;-74
2022/04/02 01:50:58;;;;;;;7.75;2.80;;;-0.80;99.90;;;;;;5095763;28;20105;-74
2022/04/02 01:53:25;;;;;;;3.90;2.60;;;-0.60;99.90;;;;;;5097802;28;20043;-74
2022/04/02 01:55:52;;;;;;;7.95;3.13;;;-0.70;99.90;;;;;;5116712;28;20047;-74
2022/04/02 01:58:18;;;;;;;4.95;2.55;;;-0.70;99.90;;;;;;5096733;28;20051;-74
2022/04/02 02:00:46;;;;;;;9.88;2.60;;;-0.70;99.90;;;;;;5098191;28;20040;-74
2022/04/02 02:03:12;;;;;;;5.38;2.72;;;-0.70;99.90;;;;;;5098055;28;20075;-73
2022/04/02 02:05:39;;;;;;;5.80;3.22;;;-0.80;99.90;;;;;;5096199;28;20043;-74
2022/04/02 02:08:05;;;;;;;5.25;2.95;;;-0.80;99.90;;;;;;5115793;28;20035;-74
2022/04/02 02:10:32;;;;;;;5.63;3.38;;;-0.90;99.90;;;;;;5116942;28;20036;-74
2022/04/02 02:12:59;;;;;;;6.00;2.70;;;-0.90;99.90;;;;;;5115133;28;20073;-73
2022/04/02 02:15:26;;;;;;;6.47;3.63;;;-0.90;99.90;;;;;;5116043;28;20047;-74
2022/04/02 02:17:53;;;;;;;8.00;3.17;;;-0.90;99.90;;;;;;5096801;28;20440;-73
2022/04/02 02:20:19;;;;;;;4.90;2.63;;;-0.90;99.90;;;;;;5097974;28;20047;-73
2022/04/02 02:22:47;;;;;;;4.75;2.67;;;-1.00;99.90;;;;;;5097472;28;20126;-73
2022/04/02 02:25:17;;;;;;;7.30;3.00;;;-1.00;99.90;;;;;;5115102;28;20043;-73
2022/04/02 02:27:45;;;;;;;8.95;2.90;;;-1.10;99.90;;;;;;5115599;28;20043;-74
2022/04/02 02:30:13;;;;;;;7.40;3.20;;;-1.10;99.90;;;;;;5115871;28;20043;-73
2022/04/02 02:32:39;;;;;;;2.80;2.22;;;-1.10;99.90;;;;;;5114612;28;20499;-73
2022/04/02 02:38:11;;;;;;;10.15;2.60;;;-1.10;99.90;;;;;;5059008;28;20510;-74
2022/04/02 02:40:38;;;;;;;6.05;2.58;;;-1.10;99.90;;;;;;5114679;28;20039;-74
2022/04/02 02:43:05;;;;;;;6.65;3.10;;;-1.10;99.90;;;;;;5115166;28;20044;-73
2022/04/02 02:45:32;;;;;;;9.38;2.92;;;-1.20;99.90;;;;;;5097057;28;20398;-74
2022/04/02 02:47:58;;;;;;;5.65;2.72;;;-1.20;99.90;;;;;;5096219;28;20386;-74
2022/04/02 02:50:25;;;;;;;8.05;2.78;;;-1.20;99.90;;;;;;5115391;28;20043;-74
2022/04/02 02:52:52;;;;;;;4.35;2.90;;;-1.20;99.90;;;;;;5079548;28;20109;-74
2022/04/02 02:55:18;;;;;;;3.85;2.85;;;-1.20;99.90;;;;;;5095867;28;20143;-74
2022/04/02 02:57:45;;;;;;;7.43;3.13;;;-1.20;99.90;;;;;;5096757;28;20071;-74
2022/04/02 03:00:13;;;;;;;4.57;2.80;;;-1.30;99.90;;;;;;5114332;28;20048;-74
2022/04/02 03:02:39;;;;;;;5.55;2.63;;;-1.30;99.90;;;;;;5096769;28;20059;-74
2022/04/02 03:05:09;;;;;;;6.88;2.78;;;-1.30;99.90;;;;;;5114888;28;20450;-74
2022/04/02 03:07:49;;;;;;;6.47;3.05;;;-1.30;99.90;;;;;;5114061;28;20044;-74
2022/04/02 03:10:17;;;;;;;7.63;3.10;;;-1.30;99.90;;;;;;5096759;28;20114;-74
2022/04/02 03:12:43;;;;;;;7.97;2.78;;;-1.30;99.90;;;;;;5114189;28;20502;-74
2022/04/02 03:15:11;;;;;;;4.93;2.97;;;-1.40;99.90;;;;;;5113906;28;20059;-74
2022/04/02 03:17:37;;;;;;;3.80;2.70;;;-1.20;99.90;;;;;;5096146;28;20048;-74
2022/04/02 03:20:04;;;;;;;5.20;3.30;;;-1.40;99.90;;;;;;5096592;28;20086;-74
2022/04/02 03:22:34;;;;;;;5.80;3.10;;;-1.30;99.90;;;;;;5078351;28;20135;-74
2022/04/02 03:25:04;;;;;;;6.00;2.92;;;-1.30;99.90;;;;;;5096489;28;20051;-74
2022/04/02 03:27:29;;;;;;;7.32;2.53;;;-1.30;99.90;;;;;;5096324;28;20102;-74
2022/04/02 03:29:55;;;;;;;5.00;3.00;;;-1.30;99.90;;;;;;5113754;28;20478;-74
2022/04/02 03:32:21;;;;;;;3.80;2.63;;;-1.30;99.90;;;;;;5096051;28;20032;-74
2022/04/02 03:34:47;;;;;;;6.00;2.92;;;-1.30;99.90;;;;;;5114440;28;20089;-74
2022/04/02 03:37:15;;;;;;;3.90;2.10;;;-1.20;99.90;;;;;;5095118;28;20051;-74
2022/04/02 03:39:41;;;;;;;10.15;2.80;;;-1.30;99.90;;;;;;5114451;28;20085;-74
2022/04/02 03:42:08;;;;;;;6.95;2.85;;;-1.10;99.90;;;;;;5114025;28;20052;-74
2022/04/02 03:44:35;;;;;;;6.95;2.78;;;-1.30;99.90;;;;;;5113505;28;20479;-74
2022/04/02 03:47:09;;;;;;;4.25;2.70;;;-1.30;99.90;;;;;;5095619;28;20501;-74
2022/04/02 03:49:36;;;;;;;5.97;2.97;;;-1.30;99.90;;;;;;5095597;28;20485;-74
2022/04/02 03:52:02;;;;;;;5.15;2.30;;;-1.40;99.90;;;;;;5094898;28;20047;-74
2022/04/02 03:54:28;;;;;;;4.03;2.28;;;-1.30;99.90;;;;;;5096271;28;20413;-74
2022/04/02 03:56:53;;;;;;;8.30;2.60;;;-1.20;99.90;;;;;;5088265;28;20051;-74
2022/04/02 03:59:20;;;;;;;6.80;2.45;;;-1.10;99.90;;;;;;5075690;28;20059;-74
2022/04/02 04:01:46;;;;;;;4.88;2.20;;;-1.10;99.90;;;;;;5099912;28;20068;-74
2022/04/02 04:04:13;;;;;;;3.08;1.90;;;-1.20;99.90;;;;;;5113271;28;20035;-74
2022/04/02 04:06:39;;;;;;;4.22;2.13;;;-1.20;99.90;;;;;;5078434;28;20051;-74
2022/04/02 04:09:04;;;;;;;4.32;2.40;;;-1.20;99.90;;;;;;5096125;28;20043;-74
2022/04/02 04:11:30;;;;;;;2.35;1.88;;;-1.20;99.90;;;;;;5113009;28;20479;-74
2022/04/02 04:13:59;;;;;;;2.97;1.88;;;-1.20;99.90;;;;;;5095948;28;20039;-74
2022/04/02 04:16:25;;;;;;;5.38;2.55;;;-1.20;99.90;;;;;;5095418;28;20051;-74
2022/04/02 04:18:51;;;;;;;3.13;1.73;;;-1.30;99.90;;;;;;5113061;28;20036;-74
2022/04/02 04:21:17;;;;;;;3.72;2.33;;;-1.30;99.90;;;;;;5095856;28;20047;-74
2022/04/02 04:23:43;;;;;;;3.35;1.65;;;-1.30;99.90;;;;;;5094908;28;20062;-74
2022/04/02 04:26:11;;;;;;;5.03;2.00;;;-1.20;99.90;;;;;;5078056;28;20124;-74
2022/04/02 04:28:37;;;;;;;4.90;1.40;;;-1.10;99.90;;;;;;5115721;28;20082;-74
2022/04/02 04:31:04;;;;;;;4.20;1.42;;;-1.10;99.90;;;;;;5118194;28;20054;-74
2022/04/02 04:33:31;;;;;;;3.03;1.63;;;-1.00;99.90;;;;;;5116965;28;20067;-74
2022/04/02 04:35:57;;;;;;;14.15;2.10;;;-0.90;99.90;;;;;;5082585;28;20123;-74
2022/04/02 04:38:23;;;;;;;3.05;2.05;;;-0.80;99.90;;;;;;5117768;28;20114;-74
2022/04/02 04:40:49;;;;;;;3.05;1.75;;;-0.80;99.90;;;;;;5117212;28;20071;-74
2022/04/02 04:43:14;;;;;;;4.18;1.70;;;-0.80;99.90;;;;;;5117655;28;20094;-74
2022/04/02 04:45:40;;;;;;;4.82;1.40;;;-0.70;99.90;;;;;;5098807;28;20051;-74
2022/04/02 04:48:06;;;;;;;3.53;1.58;;;-0.80;99.90;;;;;;5099188;28;20039;-74
2022/04/02 04:50:34;;;;;;;3.95;1.58;;;-0.70;99.90;;;;;;5099471;28;20043;-74
2022/04/02 04:53:00;;;;;;;4.90;2.13;;;-0.70;99.90;;;;;;5098103;28;20380;-74
2022/04/02 04:55:25;;;;;;;4.10;1.92;;;-0.70;99.90;;;;;;5117246;28;20048;-74
2022/04/02 04:57:51;;;;;;;4.82;2.10;;;-0.60;99.90;;;;;;5099030;28;20082;-74
2022/04/02 05:00:17;;;;;;;3.28;1.20;;;-0.60;99.90;;;;;;5098120;28;20039;-74
2022/04/02 05:02:45;;;;;;;5.88;1.40;;;-0.60;99.90;;;;;;5099256;28;20074;-74
2022/04/02 05:05:12;;;;;;;2.22;1.25;;;-0.50;99.90;;;;;;5098913;28;20383;-74
2022/04/02 05:07:41;;;;;;;4.68;1.83;;;-0.40;99.90;;;;;;5116623;28;20046;-74
2022/04/02 05:10:09;;;;;;;4.50;1.50;;;-0.40;99.90;;;;;;5098713;28;20047;-74
2022/04/02 05:12:36;;;;;;;4.28;1.80;;;-0.40;99.90;;;;;;5099018;28;20047;-74
2022/04/02 05:15:04;;;;;;;2.95;1.58;;;-0.30;99.90;;;;;;5115994;28;20050;-74
2022/04/02 05:17:31;;;;;;;3.50;1.35;;;-0.30;99.90;;;;;;5098990;28;20048;-74
2022/04/02 05:19:57;;;;;;;5.95;1.65;;;-0.30;99.90;;;;;;5116685;28;20054;-74
2022/04/02 05:22:23;;;;;;;6.13;1.80;;;-0.20;99.90;;;;;;5116178;28;20130;-74
2022/04/02 05:24:49;;;;;;;5.80;1.55;;;-0.10;99.90;;;;;;5116739;28;20054;-74
2022/04/02 05:27:15;;;;;;;4.63;1.40;;;-0.10;99.90;;;;;;5098637;28;20112;-74
2022/04/02 05:29:40;;;;;;;3.78;1.20;;;0.00;99.90;;;;;;5097837;28;20040;-74
2022/04/02 05:32:07;;;;;;;2.20;1.10;;;0.00;99.90;;;;;;5098987;28;20441;-74
2022/04/02 05:34:33;;;;;;;5.47;1.60;;;0.00;99.90;;;;;;5098295;28;20054;-73
2022/04/02 05:36:59;;;;;;;4.30;1.52;;;0.10;99.90;;;;;;5097958;28;20043;-73
2022/04/02 05:39:25;;;;;;;3.22;1.20;;;0.20;99.90;;;;;;5115164;28;20031;-74
2022/04/02 05:41:51;;;;;;;2.60;1.60;;;0.20;99.90;;;;;;5097223;28;20047;-73
2022/04/02 05:44:17;;;;;;;3.10;1.20;;;0.30;99.90;;;;;;5097874;28;20123;-73
2022/04/02 05:46:43;;;;;;;4.30;1.52;;;0.30;99.90;;;;;;5109084;28;20044;-73
2022/04/02 05:49:09;;;;;;;2.45;1.55;;;0.30;99.90;;;;;;5102005;28;20446;-73
2022/04/02 05:51:35;;;;;;;4.03;1.83;;;0.40;99.90;;;;;;5095772;28;20515;-74
2022/04/02 05:54:01;;;;;;;5.32;1.55;;;0.40;99.90;;;;;;5081627;28;20048;-74
2022/04/02 05:56:27;;;;;;;5.03;1.60;;;0.40;99.90;;;;;;5090685;28;20399;-74
2022/04/02 05:58:54;;;;;;;4.53;1.30;;;0.40;99.90;;;;;;5116072;28;20036;-74
2022/04/02 06:01:20;;;;;;;7.15;2.25;;;0.40;99.90;;;;;;5116430;28;20075;-74
2022/04/02 06:03:47;;;;;;;6.40;2.20;;;0.40;99.90;;;;;;5096854;28;20497;-74
2022/04/02 06:06:13;;;;;;;4.97;1.50;;;0.50;99.90;;;;;;5097837;28;20487;-74
2022/04/02 06:08:39;;;;;;;2.20;1.40;;;0.50;99.90;;;;;;5097854;28;20471;-73
2022/04/02 06:11:06;;;;;;;2.72;1.40;;;0.50;99.90;;;;;;5097261;28;20051;-73
2022/04/02 06:13:32;;;;;;;4.30;2.17;;;0.60;99.90;;;;;;5097927;28;20040;-73
2022/04/02 06:15:58;;;;;;;3.20;1.70;;;0.70;99.90;;;;;;5115959;28;20490;-74
2022/04/02 06:18:24;;;;;;;2.00;1.33;;;0.80;99.90;;;;;;5096968;28;20050;-74
2022/04/02 06:20:50;;;;;;;7.90;2.38;;;0.80;99.90;;;;;;5097350;28;20047;-74
2022/04/02 06:23:19;;;;;;;5.35;1.42;;;0.90;99.90;;;;;;5097701;28;20047;-74
2022/04/02 06:25:44;;;;;;;4.80;1.73;;;0.90;99.90;;;;;;5114764;28;20044;-75
2022/04/02 06:28:10;;;;;;;4.80;1.80;;;1.00;99.90;;;;;;5115733;28;20046;-74
2022/04/02 06:30:36;;;;;;;1.98;1.50;;;1.10;99.90;;;;;;5096953;28;20040;-74
2022/04/02 06:33:04;;;;;;;4.03;1.50;;;1.30;99.90;;;;;;5079679;28;20138;-74
2022/04/02 06:35:30;;;;;;;4.65;1.95;;;1.50;99.90;;;;;;5097081;28;20051;-73
2022/04/02 06:37:56;;;;;;;4.53;1.50;;;1.60;99.90;;;;;;5097395;28;20122;-74
2022/04/02 06:40:24;;;;;;;4.03;2.25;;;1.70;99.90;;;;;;5096280;28;20489;-74
2022/04/02 06:42:50;;;;;;;9.75;2.85;;;1.80;99.90;;;;;;5096790;28;20032;-74
2022/04/02 06:45:16;;;;;;;6.72;1.67;;;1.90;99.90;;;;;;5114209;28;20496;-73
2022/04/02 06:47:42;;;;;;;3.28;1.70;;;2.00;99.90;;;;;;5115160;28;20177;-73
2022/04/02 06:50:11;;;;;;;4.05;1.58;;;2.00;99.90;;;;;;5096894;28;20043;-74
2022/04/02 06:52:38;;;;;;;5.28;1.65;;;2.00;99.90;;;;;;5095236;28;20138;-73
2022/04/02 06:55:04;;;;;;;6.85;2.00;;;2.10;99.90;;;;;;5097341;28;20130;-73
2022/04/02 06:57:30;;;;;;;3.10;1.77;;;2.10;99.90;;;;;;5097009;28;20395;-73
2022/04/02 06:59:56;;;;;;;5.82;1.67;;;2.20;99.90;;;;;;5096233;28;20044;-73
2022/04/02 07:02:22;;;;;;;2.80;1.55;;;2.20;99.90;;;;;;5115257;28;20089;-74
2022/04/02 07:04:49;;;;;;;5.38;1.80;;;2.20;99.90;;;;;;5115135;28;20495;-73
2022/04/02 07:07:15;;;;;;;6.78;2.55;;;2.30;99.90;;;;;;5095908;28;20138;-74
2022/04/02 07:09:40;;;;;;;3.33;1.73;;;2.30;99.90;;;;;;5115161;28;20040;-73
2022/04/02 07:12:07;;;;;;;4.32;2.15;;;2.40;99.90;;;;;;5079976;28;20046;-73
2022/04/02 07:14:33;;;;;;;6.72;1.48;;;2.40;99.90;;;;;;5079088;28;20047;-73
2022/04/02 07:16:59;;;;;;;8.23;1.83;;;2.50;99.90;;;;;;5096834;28;20446;-73
2022/04/02 07:19:25;;;;;;;7.47;2.85;;;2.50;99.90;;;;;;5096368;28;20131;-74
2022/04/02 07:21:53;;;;;;;6.25;1.95;;;2.50;99.90;;;;;;5095701;28;20047;-73
2022/04/02 07:24:20;;;;;;;3.65;1.73;;;2.60;99.90;;;;;;5096447;28;20403;-73
2022/04/02 07:26:46;;;;;;;7.65;2.15;;;2.70;99.90;;;;;;5096377;28;20513;-73
2022/04/02 07:29:13;;;;;;;4.10;1.83;;;2.80;99.90;;;;;;5095502;28;20045;-74
2022/04/02 07:31:40;;;;;;;5.80;1.63;;;2.90;99.90;;;;;;5097146;28;20126;-73
2022/04/02 07:34:06;;;;;;;5.72;1.83;;;2.90;99.90;;;;;;5096133;28;20051;-73
2022/04/02 07:36:46;;;;;;;6.13;2.33;;;3.00;99.90;;;;;;5113802;28;20173;-73
2022/04/02 07:39:37;;;;;;;5.38;2.10;;;3.00;99.90;;;;;;5096656;28;20490;-73
2022/04/02 07:42:11;;;;;;;3.28;2.08;;;3.00;99.90;;;;;;5095317;28;20047;-73
2022/04/02 07:45:13;;;;;;;4.32;2.00;;;3.00;99.90;;;;;;5096189;28;20047;-73
2022/04/02 07:47:44;;;;;;;4.65;1.73;;;3.00;99.90;;;;;;5080032;28;20058;-73
2022/04/02 07:50:15;;;;;;;2.92;1.88;;;3.00;99.90;;;;;;5113475;28;20044;-73
2022/04/02 07:52:50;;;;;;;7.28;3.33;;;3.00;99.90;;;;;;5095786;28;20055;-74
2022/04/02 07:55:18;;;;;;;6.03;1.42;;;3.00;99.90;;;;;;5078984;28;20077;-73
2022/04/02 07:57:46;;;;;;;3.55;1.80;;;2.90;99.90;;;;;;5095564;28;20125;-73
2022/04/02 08:00:14;;;;;;;4.53;1.70;;;2.70;99.90;;;;;;5095759;28;20109;-73
2022/04/02 08:02:43;;;;;;;6.65;1.45;;;2.60;99.90;;;;;;5112671;28;20039;-73
2022/04/02 08:05:27;;;;;;;3.47;1.33;;;2.40;99.90;;;;;;5095957;28;20138;-73
2022/04/02 08:07:55;;;;;;;5.80;1.70;;;2.40;99.90;;;;;;5095846;28;20491;-73
2022/04/02 08:10:23;;;;;;;5.20;1.48;;;2.30;99.90;;;;;;5094872;28;20047;-73
2022/04/02 08:12:49;;;;;;;2.60;1.45;;;2.20;99.90;;;;;;5094751;28;20044;-73
2022/04/02 08:15:20;;;;;;;5.47;1.42;;;2.20;99.90;;;;;;5114086;28;20036;-74
2022/04/02 08:17:55;;;;;;;3.03;1.80;;;2.30;99.90;;;;;;5094921;28;20403;-74
2022/04/02 08:20:23;;;;;;;6.05;2.10;;;2.40;99.90;;;;;;5114026;28;20040;-73
2022/04/02 08:22:49;;;;;;;5.85;1.75;;;2.40;99.90;;;;;;5113384;28;20038;-74
2022/04/02 08:25:15;;;;;;;3.00;1.85;;;2.50;99.90;;;;;;5094618;28;20039;-73
2022/04/02 08:27:54;;;;;;;2.05;1.48;;;2.50;99.90;;;;;;5113432;28;20044;-74
2022/04/02 08:30:33;;;;;;;3.40;1.60;;;2.70;99.90;;;;;;5113294;28;20044;-74
2022/04/02 08:33:42;;;;;;;4.35;1.33;;;2.70;99.90;;;;;;5095166;28;20058;-73
2022/04/02 08:36:34;;;;;;;4.38;1.45;;;2.90;99.90;;;;;;5113203;28;20547;-74
2022/04/02 08:39:12;;;;;;;7.50;1.52;;;3.20;99.90;;;;;;5094856;28;20052;-74
2022/04/02 08:42:29;;;;;;;3.90;1.27;;;3.40;99.90;;;;;;5081303;28;20112;-73
2022/04/02 08:45:08;;;;;;;;;;;3.70;99.90;;;;;;5051252;28;20503;-73
2022/04/02 08:48:01;;;;;;;2.25;1.30;;;3.90;99.90;;;;;;5113691;28;19949;-72
2022/04/02 08:50:36;;;;;;;1.85;0.93;;;4.20;99.90;;;;;;5095095;28;20068;-74
2022/04/02 08:53:57;;;;;;;5.88;1.45;;;4.40;99.90;;;;;;5094169;28;20051;-77
2022/04/02 08:56:25;;;;;;;2.65;1.17;;;4.60;99.90;;;;;;5007803;28;20516;-76
2022/04/02 08:58:52;;;;;;;5.95;1.27;;;4.80;99.90;;;;;;5008357;28;20046;-74
2022/04/02 09:01:24;;;;;;;2.83;1.05;;;4.90;99.90;;;;;;5048877;28;20070;-76
2022/04/02 09:04:20;;;;;;;1.77;0.85;;;5.00;99.90;;;;;;5094767;28;20047;-78
2022/04/02 09:07:15;;;;;;;4.65;1.15;;;5.20;99.90;;;;;;5089539;28;20135;-78
2022/04/02 09:10:11;;;;;;;2.97;1.20;;;5.20;99.90;;;;;;5023710;28;20441;-74
2022/04/02 09:13:14;;;;;;;2.72;1.00;;;5.20;99.90;;;;;;5112977;28;20134;-75
2022/04/02 09:16:01;;;;;;;2.92;1.55;;;5.20;99.90;;;;;;5113628;28;20104;-80
2022/04/02 09:19:13;;;;;;;2.25;0.80;;;5.30;99.90;;;;;;5098598;28;20449;-76
2022/04/02 09:22:04;;;;;;;8.70;2.40;;;5.40;99.90;;;;;;5012824;28;20065;-75
2022/04/02 09:24:58;;;;;;;4.43;1.30;;;5.50;99.90;;;;;;5107643;28;20087;-74
2022/04/02 09:27:45;;;;;;;1.33;0.75;;;5.70;99.90;;;;;;5095991;28;20046;-80
2022/04/02 09:30:50;;;;;;;3.17;0.80;;;5.70;99.90;;;;;;5097985;28;20079;-75
2022/04/02 09:33:35;;;;;;;2.53;1.27;;;5.50;99.90;;;;;;5093783;28;20052;-74
2022/04/02 09:36:10;;;;;;;3.80;1.50;;;5.30;99.90;;;;;;5115924;28;20036;-72
2022/04/02 09:38:50;;;;;;;;;;;5.10;99.90;;;;;;5116310;28;20373;-75
2022/04/02 09:41:16;;;;;;;5.03;1.10;;;4.90;99.50;;;;;;5097645;28;19924;-74
2022/04/02 09:44:20;;;;;;;2.35;0.90;;;4.80;98.90;;;;;;5116460;28;20135;-74
2022/04/02 09:47:04;;;;;;;3.35;1.33;;;4.80;99.90;;;;;;5074595;28;20063;-73
2022/04/02 09:50:06;;;;;;;5.93;1.10;;;4.70;99.20;;;;;;5101855;28;20051;-75
2022/04/02 09:52:33;;;;;;;4.53;1.65;;;4.70;99.50;;;;;;5077652;28;20399;-74
2022/04/02 09:55:01;;;;;;;2.35;1.13;;;4.80;99.90;;;;;;5060372;28;20094;-75
2022/04/02 09:57:45;;;;;;;2.53;1.27;;;4.90;99.90;;;;;;5074438;28;20055;-73
2022/04/02 10:00:13;;;;;;;1.15;0.80;;;5.20;99.90;;;;;;5092305;28;20150;-73
2022/04/02 10:03:03;;;;;;;3.50;1.15;;;5.60;99.90;;;;;;5093587;28;20107;-77
2022/04/02 10:05:59;;;;;;;1.90;0.80;;;5.90;99.20;;;;;;5093800;28;20090;-77
2022/04/02 10:08:35;;;;;;;2.72;1.08;;;5.90;96.60;;;;;;5075565;28;20052;-75
2022/04/02 10:11:02;;;;;;;2.30;1.02;;;5.70;96.70;;;;;;5093294;28;20094;-75
2022/04/02 10:13:34;;;;;;;1.45;0.80;;;5.70;97.40;;;;;;5094492;28;20131;-75
2022/04/02 10:16:00;;;;;;;7.35;1.67;;;5.70;96.50;;;;;;5093970;28;20051;-75
2022/04/02 10:18:27;;;;;;;2.42;0.80;;;5.70;97.30;;;;;;5093347;28;20040;-74
2022/04/02 10:20:53;;;;;;;6.43;2.03;;;5.80;97.70;;;;;;5094979;28;20072;-75
2022/04/02 10:23:24;;;;;;;1.17;0.88;;;5.80;96.30;;;;;;5094934;28;20044;-74
2022/04/02 10:26:03;;;;;;;1.58;0.80;;;5.90;95.90;;;;;;5093006;28;20039;-77
2022/04/02 10:28:30;;;;;;;3.30;0.80;;;6.20;94.60;;;;;;5095483;28;20495;-74
2022/04/02 10:30:57;;;;;;;0.93;0.70;;;6.30;94.70;;;;;;5092912;28;20518;-75
2022/04/02 10:33:34;;;;;;;3.22;1.05;;;6.30;94.20;;;;;;5094404;28;20440;-73
2022/04/02 10:36:03;;;;;;;3.08;0.80;;;6.20;93.60;;;;;;5093451;28;20087;-75
2022/04/02 10:38:33;;;;;;;0.95;0.70;;;6.10;93.30;;;;;;5093687;28;20081;-74
2022/04/02 10:41:18;;;;;;;2.97;0.82;;;6.10;94.10;;;;;;5094914;28;20052;-73
2022/04/02 10:43:44;;;;;;;4.47;0.73;;;6.20;95.10;;;;;;5095251;28;20044;-75
2022/04/02 10:46:10;;;;;;;3.70;1.00;;;6.20;94.20;;;;;;5092691;28;20113;-73
2022/04/02 10:48:57;;;;;;;1.92;0.90;;;6.10;95.30;;;;;;5094150;28;20052;-73
2022/04/02 10:51:29;;;;;;;3.63;1.08;;;6.00;94.10;;;;;;5097924;28;20407;-74
2022/04/02 10:54:10;;;;;;;1.67;0.90;;;5.90;95.50;;;;;;5115138;28;20047;-74
2022/04/02 10:56:44;;;;;;;2.47;1.20;;;5.90;95.20;;;;;;5080419;28;20070;-73
2022/04/02 10:59:11;;;;;;;2.88;0.95;;;5.70;95.20;;;;;;5095760;28;20040;-71
2022/04/02 11:01:41;;;;;;;3.50;0.82;;;5.60;95.90;;;;;;5079494;28;20046;-71
2022/04/02 11:04:48;;;;;;;5.13;1.27;;;5.80;96.50;;;;;;5096793;28;20127;-74
2022/04/02 11:07:27;;;;;;;1.50;0.80;;;5.80;95.00;;;;;;5044812;28;20052;-73
2022/04/02 11:09:53;;;;;;;1.88;0.90;;;5.70;94.10;;;;;;5114526;28;20130;-73
2022/04/02 11:12:30;;;;;;;3.63;0.98;;;5.50;94.10;;;;;;5096731;28;20123;-76
2022/04/02 11:15:10;;;;;;;1.73;0.77;;;5.70;94.50;;;;;;5114250;28;20031;-72
2022/04/02 11:17:46;;;;;;;3.45;0.90;;;5.80;95.40;;;;;;5097639;28;20048;-72
2022/04/02 11:20:24;;;;;;;0.90;0.70;;;5.90;93.90;;;;;;5091062;28;20123;-73
2022/04/02 11:22:57;;;;;;;1.92;1.02;;;5.80;93.40;;;;;;5076802;28;20487;-72
2022/04/02 11:25:29;;;;;;;2.35;0.90;;;5.60;93.70;;;;;;5096527;28;20058;-73
2022/04/02 11:28:11;;;;;;;2.85;1.05;;;5.40;93.50;;;;;;5095298;28;20054;-72
2022/04/02 11:30:44;;;;;;;2.70;0.93;;;5.30;93.60;;;;;;5114546;28;20513;-73
2022/04/02 11:33:14;;;;;;;1.90;0.70;;;5.50;93.50;;;;;;5114401;28;20111;-73
2022/04/02 11:35:45;;;;;;;1.80;0.55;;;5.70;92.90;;;;;;5095839;28;20051;-73
2022/04/02 11:38:20;;;;;;;1.85;0.65;;;5.90;93.70;;;;;;5095651;28;20050;-74
2022/04/02 11:40:52;;;;;;;1.85;0.70;;;6.20;93.70;;;;;;5095339;28;20172;-74
2022/04/02 11:43:18;;;;;;;5.13;1.02;;;6.20;91.00;;;;;;5114343;28;20044;-73
2022/04/02 11:45:46;;;;;;;1.55;0.90;;;6.00;90.20;;;;;;5113499;28;20117;-73
2022/04/02 11:48:14;;;;;;;2.60;0.95;;;6.00;90.20;;;;;;5095549;28;20479;-73
2022/04/02 11:50:45;;;;;;;3.38;1.15;;;6.10;90.40;;;;;;5113621;28;20033;-72
2022/04/02 11:53:13;;;;;;;3.40;1.05;;;6.30;91.40;;;;;;5095656;28;20066;-75
2022/04/02 11:55:40;;;;;;;1.42;0.80;;;6.60;90.30;;;;;;5113050;28;20045;-75
2022/04/02 11:58:12;;;;;;;3.95;0.98;;;6.70;86.30;;;;;;5095800;28;20055;-72
2022/04/02 12:00:43;;;;;;;4.25;0.90;;;6.50;83.10;;;;;;5113769;28;20043;-72
2022/04/02 12:03:25;;;;;;;3.97;1.10;;;6.30;84.80;;;;;;5112738;28;20390;-73
2022/04/02 12:05:51;;;;;;;0.98;0.60;;;6.20;86.10;;;;;;5095556;28;20054;-72
2022/04/02 12:08:31;;;;;;;2.72;1.08;;;6.20;87.30;;;;;;5087036;28;20063;-73
2022/04/02 12:10:59;;;;;;;3.60;0.95;;;6.40;89.40;;;;;;5095326;28;20534;-73
2022/04/02 12:13:26;;;;;;;2.08;0.90;;;6.50;86.20;;;;;;5095477;28;20071;-74
2022/04/02 12:16:04;;;;;;;4.75;1.13;;;6.60;84.50;;;;;;5094833;28;20058;-73
2022/04/02 12:18:31;;;;;;;3.42;0.98;;;6.70;84.90;;;;;;5095416;28;20042;-74
2022/04/02 12:21:07;;;;;;;1.23;0.77;;;6.80;80.80;;;;;;5114134;28;20134;-74
2022/04/02 12:23:33;;;;;;;2.55;0.65;;;6.70;79.70;;;;;;5094478;28;20122;-72
2022/04/02 12:26:01;;;;;;;5.18;0.90;;;6.70;81.60;;;;;;5095645;28;20130;-72
2022/04/02 12:28:27;;;;;;;4.63;1.23;;;6.70;83.70;;;;;;5094696;28;20051;-73
2022/04/02 12:31:01;;;;;;;2.22;0.77;;;6.80;81.30;;;;;;5112880;28;20040;-73
2022/04/02 12:33:28;;;;;;;5.07;0.65;;;6.70;80.40;;;;;;5095044;28;20084;-72
2022/04/02 12:36:09;;;;;;;2.85;1.02;;;6.70;79.40;;;;;;5095498;28;20479;-73
2022/04/02 12:38:40;;;;;;;3.38;0.98;;;6.60;77.70;;;;;;5094396;28;20043;-72
2022/04/02 12:41:22;;;;;;;2.78;0.95;;;6.50;78.30;;;;;;5113624;28;20040;-74
2022/04/02 12:43:50;;;;;;;3.65;1.10;;;6.40;77.80;;;;;;5094525;28;20051;-72
2022/04/02 12:46:26;;;;;;;3.95;0.68;;;6.30;79.40;;;;;;5113525;28;20478;-72
2022/04/02 12:48:52;;;;;;;1.88;0.60;;;6.40;78.60;;;;;;5092034;28;20055;-72
2022/04/02 12:51:19;;;;;;;3.67;1.83;;;6.60;79.50;;;;;;5096477;28;20100;-72
2022/04/02 12:53:47;;;;;;;4.75;1.48;;;6.90;79.00;;;;;;5099451;28;20051;-71
2022/04/02 12:56:19;;;;;;;4.00;0.82;;;7.10;79.90;;;;;;5117690;28;20055;-74
2022/04/02 12:58:47;;;;;;;2.25;0.90;;;7.10;77.60;;;;;;5081473;28;20048;-72
2022/04/02 13:01:25;;;;;;;2.63;0.88;;;6.90;75.20;;;;;;5117691;28;20048;-75
2022/04/02 13:04:00;;;;;;;4.10;0.70;;;6.90;76.70;;;;;;5098822;28;20047;-74
2022/04/02 13:06:32;;;;;;;3.83;1.20;;;7.00;76.10;;;;;;5116080;28;20132;-71
2022/04/02 13:09:01;;;;;;;6.18;1.27;;;7.30;77.60;;;;;;5098722;28;20036;-72
2022/04/02 13:11:45;;;;;;;1.83;0.82;;;7.50;76.80;;;;;;5117502;28;20054;-75
2022/04/02 13:14:33;;;;;;;3.55;0.93;;;7.50;73.70;;;;;;5097579;28;20073;-72